Time;durP1;ratioP1;P1;durP2;ratioP2;P2;SDS_P1;SDS_P2;PMS_P1;PMS_P2;Temp;Humidity;BMP_temperature;BMP_pressure;BME280_temperature;BME280_humidity;BME280_pressure;Samples;Min_cycle;Max_cycle;Signal;HPM_P1;HPM_P2
2021/05/28 00:02:23;;;;;;;11.52;7.55;;;;;;;12.01;100.00;101029.31;5034809;28;20532;-66
2021/05/28 00:05:07;;;;;;;9.30;7.00;;;;;;;11.96;100.00;101036.00;5035099;28;20402;-65
2021/05/28 00:07:51;;;;;;;12.82;7.47;;;;;;;11.93;100.00;101037.16;5034685;28;20528;-65
2021/05/28 00:10:35;;;;;;;11.18;7.25;;;;;;;11.94;100.00;101038.84;5034671;28;20147;-66
2021/05/28 00:13:19;;;;;;;7.85;6.47;;;;;;;11.94;100.00;101038.84;5035608;28;20509;-66
2021/05/28 00:16:04;;;;;;;14.20;7.15;;;;;;;11.94;100.00;101038.84;5034644;28;20556;-66
2021/05/28 00:18:48;;;;;;;13.20;7.63;;;;;;;11.96;100.00;101036.00;5035527;28;20525;-66
2021/05/28 00:21:33;;;;;;;9.05;6.80;;;;;;;11.97;100.00;101040.41;5034713;28;20068;-65
2021/05/28 00:24:17;;;;;;;10.68;6.53;;;;;;;11.98;100.00;101044.75;5035388;28;20048;-66
2021/05/28 00:27:01;;;;;;;11.57;7.00;;;;;;;12.00;100.00;101043.63;5034628;28;20102;-66
2021/05/28 00:29:44;;;;;;;13.35;7.10;;;;;;;12.03;100.00;101046.06;5035700;28;20102;-66
2021/05/28 00:32:28;;;;;;;8.95;6.45;;;;;;;12.04;100.00;101036.19;5034252;28;20481;-65
2021/05/28 00:35:13;;;;;;;10.45;6.97;;;;;;;12.04;100.00;101046.88;5034216;28;20107;-66
2021/05/28 00:37:57;;;;;;;11.20;7.28;;;;;;;12.05;100.00;101038.75;5035243;28;20537;-65
2021/05/28 00:40:41;;;;;;;12.85;7.20;;;;;;;12.05;100.00;101038.75;5034041;28;20056;-66
2021/05/28 00:43:25;;;;;;;11.95;6.50;;;;;;;12.05;100.00;101041.41;5020329;28;20514;-66
2021/05/28 00:46:09;;;;;;;12.10;6.88;;;;;;;12.11;100.00;101048.03;5034260;28;20052;-66
2021/05/28 00:48:54;;;;;;;12.18;7.40;;;;;;;12.14;100.00;101045.94;5034163;28;20067;-65
2021/05/28 00:51:38;;;;;;;10.40;6.93;;;;;;;12.16;100.00;101049.31;5033867;28;20091;-66
2021/05/28 00:54:22;;;;;;;10.95;7.05;;;;;;;12.15;100.00;101044.97;5034844;28;20056;-66
2021/05/28 00:57:07;;;;;;;13.40;7.10;;;;;;;12.15;100.00;101038.75;5033598;28;20417;-66
2021/05/28 00:59:54;;;;;;;8.63;6.15;;;;;;;12.16;100.00;101040.44;5034191;28;20052;-66
2021/05/28 01:02:39;;;;;;;13.48;6.63;;;;;;;12.15;100.00;101042.28;5034246;28;20057;-66
2021/05/28 01:05:23;;;;;;;12.40;6.57;;;;;;;12.15;100.00;101044.97;5033632;28;20060;-66
2021/05/28 01:08:07;;;;;;;9.95;6.55;;;;;;;12.16;100.00;101035.09;5034805;28;20096;-66
2021/05/28 01:10:50;;;;;;;9.10;6.97;;;;;;;12.14;100.00;101029.91;5033909;28;20040;-66
2021/05/28 01:13:34;;;;;;;13.82;7.47;;;;;;;12.14;100.00;101043.28;5034465;28;20130;-66
2021/05/28 01:16:19;;;;;;;11.00;7.30;;;;;;;12.13;100.00;101038.91;5034701;28;20052;-65
2021/05/28 01:19:04;;;;;;;12.65;7.88;;;;;;;12.12;100.00;101042.56;5033570;28;20137;-66
2021/05/28 01:21:47;;;;;;;10.32;7.20;;;;;;;12.11;100.00;101040.88;5034532;28;20409;-66
2021/05/28 01:24:32;;;;;;;10.48;6.95;;;;;;;12.13;100.00;101046.06;5033559;28;20107;-66
2021/05/28 01:27:17;;;;;;;11.38;7.13;;;;;;;12.11;100.00;101048.91;5019161;28;20103;-66
2021/05/28 01:30:01;;;;;;;12.13;7.03;;;;;;;12.14;100.00;101051.28;5033477;28;20044;-66
2021/05/28 01:32:45;;;;;;;11.95;7.88;;;;;;;12.13;100.00;101054.94;5033657;28;20083;-65
2021/05/28 01:35:29;;;;;;;11.27;7.20;;;;;;;12.13;100.00;101059.44;5034011;28;20098;-66
2021/05/28 01:38:13;;;;;;;12.02;7.32;;;;;;;12.13;100.00;101054.09;5033035;28;20111;-65
2021/05/28 01:40:57;;;;;;;13.88;7.45;;;;;;;12.13;100.00;101054.94;5034237;28;20517;-66
2021/05/28 01:43:41;;;;;;;14.32;6.95;;;;;;;12.13;100.00;101057.63;5034198;28;20071;-66
2021/05/28 01:46:25;;;;;;;10.60;6.22;;;;;;;12.10;100.00;101049.03;5034089;28;20044;-65
2021/05/28 01:49:09;;;;;;;13.95;6.40;;;;;;;12.12;99.00;101060.41;5034047;28;20068;-66
2021/05/28 01:51:53;;;;;;;10.77;6.22;;;;;;;12.14;99.56;101056.63;5034029;28;20064;-65
2021/05/28 01:54:39;;;;;;;12.75;7.07;;;;;;;12.13;100.00;101056.75;5032930;28;20052;-66
2021/05/28 01:57:23;;;;;;;13.38;6.28;;;;;;;12.07;100.00;101060.00;5032712;28;20068;-66
2021/05/28 02:00:11;;;;;;;12.18;6.63;;;;;;;12.07;99.99;101052.81;5033828;28;20056;-66
2021/05/28 02:02:55;;;;;;;13.40;6.30;;;;;;;12.05;99.26;101061.94;5032877;28;20410;-66
2021/05/28 02:05:40;;;;;;;12.93;7.00;;;;;;;12.08;99.43;101062.50;5032846;28;20560;-65
2021/05/28 02:08:23;;;;;;;13.02;6.55;;;;;;;12.02;99.79;101063.06;5032736;28;20113;-66
2021/05/28 02:11:07;;;;;;;10.65;6.70;;;;;;;12.03;98.27;101067.44;5033457;28;20052;-66
2021/05/28 02:13:53;;;;;;;12.60;6.65;;;;;;;12.09;96.81;101058.03;5032410;28;20416;-64
2021/05/28 02:16:38;;;;;;;13.70;6.72;;;;;;;12.03;96.06;101051.41;5018705;28;20052;-66
2021/05/28 02:19:22;;;;;;;11.60;6.53;;;;;;;12.00;97.15;101058.81;5032289;28;20095;-65
2021/05/28 02:22:10;;;;;;;12.23;6.75;;;;;;;11.97;96.89;101067.13;5032401;28;20096;-66
2021/05/28 02:24:54;;;;;;;10.05;6.28;;;;;;;11.92;98.11;101061.31;5032287;28;20121;-66
2021/05/28 02:27:38;;;;;;;12.00;6.93;;;;;;;11.87;98.01;101066.22;5033413;28;20122;-65
2021/05/28 02:30:22;;;;;;;10.43;6.63;;;;;;;11.77;99.12;101066.16;5032256;28;20075;-66
2021/05/28 02:33:05;;;;;;;11.18;7.20;;;;;;;11.75;99.37;101064.59;5032514;28;20091;-66
2021/05/28 02:35:49;;;;;;;12.63;7.95;;;;;;;11.80;100.00;101063.22;5032150;28;20568;-66
2021/05/28 02:38:34;;;;;;;14.30;7.28;;;;;;;11.73;100.00;101064.75;5032110;28;20071;-65
2021/05/28 02:41:18;;;;;;;11.50;7.68;;;;;;;11.70;100.00;101067.69;5018393;28;20088;-66
2021/05/28 02:44:04;;;;;;;18.52;7.80;;;;;;;11.66;100.00;101068.91;5032910;28;20065;-66
2021/05/28 02:46:48;;;;;;;14.38;9.25;;;;;;;11.63;100.00;101060.31;5032283;28;20235;-65
2021/05/28 02:49:32;;;;;;;11.50;8.68;;;;;;;11.60;100.00;101058.78;5033316;28;20140;-65
2021/05/28 02:52:17;;;;;;;13.02;9.35;;;;;;;11.58;100.00;101074.06;5033037;28;20095;-66
2021/05/28 02:55:01;;;;;;;12.50;8.20;;;;;;;11.58;100.00;101071.38;5033236;28;20052;-65
2021/05/28 02:57:45;;;;;;;15.93;8.68;;;;;;;11.57;100.00;101067.03;5031833;28;20121;-65
2021/05/28 03:00:29;;;;;;;14.27;8.98;;;;;;;11.55;100.00;101068.09;5031861;28;20056;-66
2021/05/28 03:03:13;;;;;;;15.40;8.30;;;;;;;11.54;100.00;101074.41;5032211;28;20095;-66
2021/05/28 03:05:58;;;;;;;17.08;8.63;;;;;;;11.59;100.00;101075.75;5031896;28;20100;-66
2021/05/28 03:08:42;;;;;;;12.52;8.00;;;;;;;11.58;100.00;101067.88;5018114;28;20132;-65
2021/05/28 03:11:26;;;;;;;15.70;9.07;;;;;;;11.59;100.00;101070.41;5033392;28;20090;-66
2021/05/28 03:14:10;;;;;;;15.60;9.15;;;;;;;11.59;100.00;101074.91;5018196;28;20052;-66
2021/05/28 03:16:54;;;;;;;12.68;7.95;;;;;;;11.60;100.00;101071.28;5031806;28;20080;-66
2021/05/28 03:19:46;;;;;;;14.75;8.70;;;;;;;11.59;100.00;101078.41;5033070;28;20052;-66
2021/05/28 03:22:32;;;;;;;8.43;7.03;;;;;;;11.57;100.00;101077.72;5032330;28;20056;-66
2021/05/28 03:25:15;;;;;;;11.63;7.30;;;;;;;11.57;100.00;101076.88;5032703;28;20120;-66
2021/05/28 03:28:00;;;;;;;10.70;6.65;;;;;;;11.58;100.00;101081.25;5032574;28;20064;-66
2021/05/28 03:30:43;;;;;;;14.88;7.38;;;;;;;11.57;100.00;101079.56;5036689;28;20072;-66
2021/05/28 03:33:28;;;;;;;10.63;7.35;;;;;;;11.58;100.00;101074.06;5035482;28;20044;-66
2021/05/28 03:36:13;;;;;;;15.32;8.88;;;;;;;11.55;100.00;101079.66;5036577;28;20047;-66
2021/05/28 03:38:57;;;;;;;13.95;8.35;;;;;;;11.53;100.00;101076.25;5021423;28;20099;-66
2021/05/28 03:41:41;;;;;;;15.98;8.25;;;;;;;11.52;100.00;101073.72;5035159;28;20084;-66
2021/05/28 03:44:25;;;;;;;12.98;8.45;;;;;;;11.53;100.00;101070.91;5035676;28;20126;-65
2021/05/28 03:47:08;;;;;;;18.27;9.63;;;;;;;11.56;100.00;101070.66;5021033;28;20532;-66
2021/05/28 03:49:52;;;;;;;12.50;8.10;;;;;;;11.49;100.00;101064.13;5021630;28;20588;-65
2021/05/28 03:52:36;;;;;;;15.20;9.15;;;;;;;11.39;100.00;101057.88;5035311;28;20052;-66
2021/05/28 03:55:20;;;;;;;14.07;8.95;;;;;;;11.33;100.00;101058.41;5035040;28;20140;-66
2021/05/28 03:58:04;;;;;;;18.52;9.73;;;;;;;11.26;100.00;101061.75;5035733;28;20528;-66
2021/05/28 04:00:49;;;;;;;20.02;10.23;;;;;;;11.23;100.00;101068.19;5034682;28;20559;-66
2021/05/28 04:03:33;;;;;;;14.60;8.63;;;;;;;11.23;100.00;101061.97;5035214;28;20525;-66
2021/05/28 04:06:17;;;;;;;12.60;9.05;;;;;;;11.25;100.00;101052.88;5035316;28;20068;-66
2021/05/28 04:09:01;;;;;;;16.02;9.00;;;;;;;11.28;100.00;101060.63;5034973;28;20103;-66
2021/05/28 04:11:44;;;;;;;17.17;9.88;;;;;;;11.28;100.00;101060.63;5035942;28;20088;-66
2021/05/28 04:14:28;;;;;;;17.92;9.82;;;;;;;11.29;100.00;101062.31;5035760;28;20556;-65
2021/05/28 04:17:12;;;;;;;15.85;9.77;;;;;;;11.34;100.00;101060.09;5034751;28;20051;-66
2021/05/28 04:19:56;;;;;;;14.77;9.38;;;;;;;11.33;100.00;101060.22;5034981;28;20056;-66
2021/05/28 04:22:40;;;;;;;17.33;9.20;;;;;;;11.37;100.00;101059.84;5035502;28;20522;-65
2021/05/28 04:25:24;;;;;;;10.32;8.48;;;;;;;11.42;100.00;101068.31;5034419;28;20163;-66
2021/05/28 04:28:08;;;;;;;13.07;9.63;;;;;;;11.48;100.00;101061.59;5020717;28;20094;-66
2021/05/28 04:30:52;;;;;;;17.20;10.43;;;;;;;11.52;100.00;101065.69;5034582;28;20413;-66
2021/05/28 04:33:36;;;;;;;15.88;9.05;;;;;;;11.57;100.00;101066.19;5034613;28;20510;-66
2021/05/28 04:36:20;;;;;;;17.70;9.50;;;;;;;11.63;100.00;101074.53;5034271;28;20555;-66
2021/05/28 04:39:04;;;;;;;19.40;9.60;;;;;;;11.69;100.00;101087.34;5035212;28;20071;-66
2021/05/28 04:41:48;;;;;;;18.77;10.13;;;;;;;11.78;100.00;101083.06;5034079;28;20102;-66
2021/05/28 04:44:32;;;;;;;19.40;9.70;;;;;;;11.82;100.00;101087.13;5034406;28;20425;-66
2021/05/28 04:47:16;;;;;;;16.52;8.65;;;;;;;11.87;100.00;101084.94;5020486;28;20457;-66
2021/05/28 04:50:01;;;;;;;13.90;9.30;;;;;;;11.96;100.00;101087.63;5034405;28;20405;-66
2021/05/28 04:52:46;;;;;;;17.83;9.80;;;;;;;12.05;100.00;101089.50;5034178;28;20084;-65
2021/05/28 04:55:30;;;;;;;15.25;9.48;;;;;;;12.07;100.00;101095.56;5034125;28;20048;-66
2021/05/28 04:58:14;;;;;;;12.32;9.30;;;;;;;12.11;100.00;101104.16;5033899;28;20048;-66
2021/05/28 05:00:58;;;;;;;13.95;9.35;;;;;;;12.17;100.00;101107.16;5035292;28;20103;-66
2021/05/28 05:03:42;;;;;;;15.90;9.27;;;;;;;12.20;100.00;101106.03;5034147;28;20517;-66
2021/05/28 05:06:26;;;;;;;14.82;8.57;;;;;;;12.25;100.00;101103.78;5035152;28;20087;-66
2021/05/28 05:09:09;;;;;;;13.23;9.45;;;;;;;12.32;100.00;101111.16;5033683;28;20513;-66
2021/05/28 05:11:54;;;;;;;15.68;9.50;;;;;;;12.40;100.00;101111.31;5034835;28;20049;-66
2021/05/28 05:14:38;;;;;;;16.92;9.55;;;;;;;12.40;98.93;101111.31;5033785;28;20051;-66
2021/05/28 05:17:22;;;;;;;17.40;10.00;;;;;;;12.39;98.96;101112.28;5019557;28;20060;-66
2021/05/28 05:20:07;;;;;;;14.75;9.32;;;;;;;12.37;99.61;101106.25;5033660;28;20124;-66
2021/05/28 05:22:51;;;;;;;23.20;10.60;;;;;;;12.49;99.35;101109.66;5033607;28;20418;-66
2021/05/28 05:25:35;;;;;;;14.00;9.43;;;;;;;12.49;98.14;101115.84;5033605;28;20091;-66
2021/05/28 05:28:19;;;;;;;19.08;10.05;;;;;;;12.59;97.64;101107.88;5033531;28;20476;-66
2021/05/28 05:31:03;;;;;;;13.85;9.98;;;;;;;12.71;98.14;101117.47;5034424;28;20410;-66
2021/05/28 05:33:48;;;;;;;13.98;10.35;;;;;;;12.74;96.20;101114.50;5033430;28;20598;-65
2021/05/28 05:36:33;;;;;;;20.77;10.60;;;;;;;12.83;94.82;101120.72;5033075;28;20072;-66
2021/05/28 05:39:17;;;;;;;16.60;11.00;;;;;;;12.97;94.33;101123.03;5032932;28;20053;-65
2021/05/28 05:42:01;;;;;;;17.98;10.82;;;;;;;13.03;92.02;101117.13;5019154;28;20091;-66
2021/05/28 05:44:45;;;;;;;16.48;9.90;;;;;;;13.13;91.78;101122.47;5033510;28;20079;-66
2021/05/28 05:47:28;;;;;;;16.13;10.45;;;;;;;13.21;90.21;101136.03;5032814;28;20049;-65
2021/05/28 05:50:13;;;;;;;15.93;10.00;;;;;;;13.11;88.95;101128.00;5033139;28;20052;-66
2021/05/28 05:52:57;;;;;;;15.43;8.88;;;;;;;13.24;88.76;101125.06;5032259;28;20064;-66
2021/05/28 05:55:41;;;;;;;13.35;8.88;;;;;;;13.25;88.06;101126.75;5032826;28;20048;-66
2021/05/28 05:58:25;;;;;;;17.88;9.48;;;;;;;13.25;88.78;101126.75;5032701;28;20100;-66
2021/05/28 06:01:09;;;;;;;14.73;8.90;;;;;;;13.43;87.87;101125.03;5032805;28;20072;-65
2021/05/28 06:03:53;;;;;;;21.20;8.82;;;;;;;13.51;86.50;101125.16;5032851;28;20552;-66
2021/05/28 06:06:37;;;;;;;17.13;8.73;;;;;;;13.44;86.29;101126.72;5032874;28;20087;-66
2021/05/28 06:09:21;;;;;;;16.70;9.13;;;;;;;13.39;86.03;101132.53;5032448;28;20102;-66
2021/05/28 06:12:05;;;;;;;16.02;8.93;;;;;;;13.42;84.94;101128.69;5033730;28;20052;-66
2021/05/28 06:14:50;;;;;;;12.57;8.73;;;;;;;13.66;85.08;101132.63;5033442;28;20095;-66
2021/05/28 06:17:34;;;;;;;20.35;9.40;;;;;;;13.73;84.75;101128.38;5032776;28;20068;-66
2021/05/28 06:20:18;;;;;;;14.68;8.50;;;;;;;13.92;83.12;101124.81;5018624;28;20064;-66
2021/05/28 06:23:02;;;;;;;13.65;8.07;;;;;;;14.03;82.77;101138.03;5032557;28;20099;-66
2021/05/28 06:25:46;;;;;;;17.80;8.68;;;;;;;14.04;82.79;101139.72;5033515;28;20049;-66
2021/05/28 06:28:30;;;;;;;17.80;8.38;;;;;;;14.12;80.82;101146.09;5018407;28;20048;-66
2021/05/28 06:31:14;;;;;;;13.23;8.52;;;;;;;14.14;80.43;101148.59;5018604;28;20080;-66
2021/05/28 06:33:58;;;;;;;14.18;8.60;;;;;;;14.26;79.97;101152.84;5032224;28;20048;-66
2021/05/28 06:36:42;;;;;;;16.77;9.30;;;;;;;14.21;79.99;101160.47;5018213;28;20099;-66
2021/05/28 06:39:26;;;;;;;15.65;8.60;;;;;;;14.29;80.36;101153.38;5033081;28;20048;-66
2021/05/28 06:42:10;;;;;;;14.48;8.70;;;;;;;14.40;80.28;101157.72;5032321;28;20528;-66
2021/05/28 06:44:54;;;;;;;15.00;9.95;;;;;;;14.49;79.28;101160.34;5032429;28;20505;-66
2021/05/28 06:47:38;;;;;;;16.30;9.38;;;;;;;14.57;78.28;101160.47;5018388;28;20052;-66
2021/05/28 06:50:22;;;;;;;15.80;9.80;;;;;;;14.42;77.32;101169.16;5033070;28;20044;-66
2021/05/28 06:53:07;;;;;;;13.90;8.88;;;;;;;14.42;77.39;101164.66;5033327;28;20048;-66
2021/05/28 06:55:50;;;;;;;14.63;9.07;;;;;;;14.35;77.19;101171.59;5032269;28;20049;-66
2021/05/28 06:58:34;;;;;;;16.30;9.80;;;;;;;14.45;78.05;101166.16;5032895;28;20636;-66
2021/05/28 07:01:21;;;;;;;13.07;9.27;;;;;;;14.51;78.76;101173.63;5032272;28;20450;-66
2021/05/28 07:04:05;;;;;;;15.05;8.93;;;;;;;14.58;79.24;101169.38;5033514;28;20211;-66
2021/05/28 07:06:49;;;;;;;16.80;9.38;;;;;;;14.77;76.77;101171.94;5036096;28;20052;-66
2021/05/28 07:09:33;;;;;;;14.52;8.18;;;;;;;14.76;75.87;101189.91;5036138;28;20128;-66
2021/05/28 07:12:17;;;;;;;13.82;8.70;;;;;;;14.79;74.90;101178.03;5022085;28;20524;-66
2021/05/28 07:15:05;;;;;;;11.48;7.60;;;;;;;14.82;75.57;101177.72;5037018;28;20571;-65
2021/05/28 07:17:49;;;;;;;12.10;7.68;;;;;;;14.81;73.58;101186.78;5036773;28;20056;-66
2021/05/28 07:20:33;;;;;;;13.95;8.40;;;;;;;14.86;74.98;101179.09;5035849;28;20083;-66
2021/05/28 07:23:19;;;;;;;13.35;8.95;;;;;;;14.96;75.90;101174.53;5035651;28;20129;-65
2021/05/28 07:26:03;;;;;;;19.80;9.23;;;;;;;15.04;74.21;101170.13;5035755;28;20064;-66
2021/05/28 07:28:47;;;;;;;19.85;9.63;;;;;;;15.12;72.92;101166.66;5035444;28;20103;-66
2021/05/28 07:31:31;;;;;;;15.10;8.98;;;;;;;15.17;72.55;101178.66;5035639;28;20540;-65
2021/05/28 07:34:15;;;;;;;12.60;8.60;;;;;;;15.27;70.60;101175.88;5035395;28;20049;-66
2021/05/28 07:36:59;;;;;;;12.82;9.32;;;;;;;15.44;70.92;101158.97;5035361;28;20092;-66
2021/05/28 07:39:43;;;;;;;13.80;8.68;;;;;;;15.61;70.59;101176.94;5036396;28;20099;-66
2021/05/28 07:42:27;;;;;;;15.27;8.98;;;;;;;15.71;70.33;101168.63;5036265;28;20041;-66
2021/05/28 07:45:11;;;;;;;15.02;9.02;;;;;;;15.74;71.33;101160.25;5021788;28;20076;-66
2021/05/28 07:47:56;;;;;;;12.02;7.97;;;;;;;15.86;71.39;101161.69;5021119;28;20489;-66
2021/05/28 07:50:46;;;;;;;12.82;8.38;;;;;;;16.03;69.90;101160.81;5035367;28;20111;-66
2021/05/28 07:53:30;;;;;;;15.27;8.63;;;;;;;16.24;69.65;101161.28;5022171;28;20048;-66
2021/05/28 07:56:14;;;;;;;11.88;8.40;;;;;;;16.38;67.97;101163.41;5021425;28;20095;-66
2021/05/28 07:58:58;;;;;;;10.80;7.65;;;;;;;16.50;66.55;101169.38;5034731;28;20056;-66
2021/05/28 08:01:44;;;;;;;11.35;7.45;;;;;;;16.49;65.45;101170.38;5021190;28;20084;-65
2021/05/28 08:04:29;;;;;;;9.93;5.50;;;;;;;16.49;62.62;101160.44;5035888;28;20529;-66
2021/05/28 08:07:13;;;;;;;10.18;5.40;;;;;;;16.53;65.09;101156.44;5035272;28;20123;-66
2021/05/28 08:09:56;;;;;;;11.65;6.85;;;;;;;16.48;62.46;101158.75;5034759;28;20064;-67
2021/05/28 08:12:40;;;;;;;9.48;6.18;;;;;;;16.65;63.01;101163.22;5035962;28;20056;-65
2021/05/28 08:15:24;;;;;;;9.02;6.80;;;;;;;16.80;65.05;101164.28;5034407;28;20068;-66
2021/05/28 08:18:09;;;;;;;11.13;7.78;;;;;;;16.99;63.51;101153.25;5034824;28;20056;-66
2021/05/28 08:20:54;;;;;;;10.43;7.40;;;;;;;17.13;63.70;101155.31;5034557;28;20064;-66
2021/05/28 08:23:38;;;;;;;13.48;7.07;;;;;;;17.29;62.18;101166.09;5034828;28;20091;-66
2021/05/28 08:26:22;;;;;;;9.18;6.10;;;;;;;17.50;61.75;101153.03;5034748;28;20468;-66
2021/05/28 08:29:08;;;;;;;10.80;8.18;;;;;;;17.77;61.41;101159.94;5034728;28;20521;-65
2021/05/28 08:31:52;;;;;;;8.90;7.20;;;;;;;17.97;58.59;101162.16;5035546;28;20044;-66
2021/05/28 08:34:36;;;;;;;11.93;7.93;;;;;;;18.20;58.64;101152.31;5034552;28;20056;-66
2021/05/28 08:37:20;;;;;;;11.27;7.50;;;;;;;18.15;58.71;101157.41;5035252;28;20156;-66
2021/05/28 08:40:04;;;;;;;12.35;6.82;;;;;;;18.20;57.99;101163.13;5020395;28;20410;-66
2021/05/28 08:42:49;;;;;;;10.43;7.60;;;;;;;18.22;57.92;101158.38;5035067;28;20056;-66
2021/05/28 08:45:35;;;;;;;12.00;8.55;;;;;;;18.32;57.09;101156.38;5035529;28;20048;-66
2021/05/28 08:48:20;;;;;;;12.00;8.13;;;;;;;18.57;57.37;101160.69;5033976;28;20129;-66
2021/05/28 08:51:04;;;;;;;10.40;7.90;;;;;;;18.71;57.77;101155.41;5020480;28;20513;-65
2021/05/28 08:53:48;;;;;;;11.45;7.30;;;;;;;19.14;54.65;101164.81;5034928;28;20052;-66
2021/05/28 08:56:33;;;;;;;11.05;7.22;;;;;;;19.06;55.28;101163.00;5033893;28;20138;-65
2021/05/28 08:59:17;;;;;;;8.77;6.72;;;;;;;19.28;55.02;101156.00;5033594;28;20057;-65
2021/05/28 09:02:01;;;;;;;10.35;7.57;;;;;;;19.48;52.89;101149.09;5034039;28;20102;-66
2021/05/28 09:05:03;;;;;;;10.40;6.32;;;;;;;19.40;52.58;101149.16;5034978;28;20497;-66
2021/05/28 09:08:00;;;;;;;13.13;9.13;;;;;;;19.35;51.38;101159.66;5034722;28;20589;-66
2021/05/28 09:10:44;;;;;;;10.05;7.75;;;;;;;19.55;52.45;101158.16;5033435;28;20114;-66
2021/05/28 09:13:28;;;;;;;12.45;7.70;;;;;;;19.64;53.43;101157.06;5035007;28;20052;-66
2021/05/28 09:16:14;;;;;;;10.40;7.60;;;;;;;19.76;52.04;101155.63;5019424;28;20052;-66
2021/05/28 09:18:59;;;;;;;11.95;7.38;;;;;;;19.75;50.47;101143.97;5034327;28;20183;-66
2021/05/28 09:21:54;;;;;;;10.00;7.95;;;;;;;19.49;50.71;101154.31;5033522;28;20399;-65
2021/05/28 09:24:40;;;;;;;9.18;6.78;;;;;;;19.33;50.90;101159.00;5033123;28;20096;-65
2021/05/28 09:27:33;;;;;;;9.00;7.20;;;;;;;19.62;51.22;101159.94;5032404;28;20505;-66
2021/05/28 09:30:20;;;;;;;11.07;7.38;;;;;;;19.74;50.55;101154.97;5034430;28;20048;-66
2021/05/28 09:33:04;;;;;;;9.48;8.35;;;;;;;19.80;51.23;101151.53;5033140;28;20057;-66
2021/05/28 09:35:49;;;;;;;13.43;8.90;;;;;;;19.49;50.91;101153.47;5019314;28;20092;-66
2021/05/28 09:38:33;;;;;;;11.77;8.63;;;;;;;19.29;51.37;101157.69;5034119;28;20049;-65
2021/05/28 09:41:35;;;;;;;8.88;7.47;;;;;;;19.52;51.11;101153.97;5018849;28;20056;-66
2021/05/28 09:44:30;;;;;;;9.63;7.35;;;;;;;19.84;51.07;101152.84;5034185;28;20052;-66
2021/05/28 09:47:17;;;;;;;9.60;6.60;;;;;;;19.98;50.70;101152.03;5032856;28;20422;-66
2021/05/28 09:50:01;;;;;;;12.27;7.97;;;;;;;20.20;47.76;101153.91;5033107;28;20095;-66
2021/05/28 09:52:45;;;;;;;11.38;7.90;;;;;;;20.34;49.06;101148.50;5033089;28;20052;-66
2021/05/28 09:55:30;;;;;;;12.77;8.25;;;;;;;20.62;48.03;101154.13;5033839;28;20075;-66
2021/05/28 09:58:14;;;;;;;14.25;8.23;;;;;;;20.55;46.91;101147.75;5032600;28;20506;-66
2021/05/28 10:01:08;;;;;;;13.05;6.22;;;;;;;21.04;46.69;101143.44;5032802;28;20505;-66
2021/05/28 10:04:06;;;;;;;;;;;;;;;21.23;45.54;101138.22;5033355;28;20048;-66
2021/05/28 10:06:50;;;;;;;7.75;5.47;;;;;;;21.45;43.88;101129.91;5033606;28;20415;-66
2021/05/28 10:09:34;;;;;;;7.18;4.72;;;;;;;21.81;45.01;101127.97;5033042;28;20075;-66
2021/05/28 10:12:18;;;;;;;8.85;5.10;;;;;;;22.26;42.98;101134.81;5032808;28;20040;-66
2021/05/28 10:15:03;;;;;;;9.18;7.13;;;;;;;22.22;42.89;101131.63;5033515;28;20056;-65
2021/05/28 10:17:47;;;;;;;10.20;7.10;;;;;;;21.75;43.01;101128.78;5032578;28;20052;-66
2021/05/28 10:20:31;;;;;;;;;;;;;;;21.52;44.32;101125.41;5033269;28;20052;-66
2021/05/28 10:23:15;;;;;;;7.10;5.20;;;;;;;22.42;41.24;101126.38;5018473;28;19920;-66
2021/05/28 10:25:59;;;;;;;4.47;4.03;;;;;;;23.78;39.74;101120.56;5033194;28;20682;-66
2021/05/28 10:28:46;;;;;;;5.82;4.55;;;;;;;25.39;36.06;101123.94;5032518;28;20171;-66
2021/05/28 10:31:59;;;;;;;5.18;4.20;;;;;;;27.36;33.36;101117.97;5032466;28;20049;-66
2021/05/28 10:35:11;;;;;;;6.55;4.30;;;;;;;29.35;29.12;101112.84;5032456;28;20095;-65
2021/05/28 10:37:55;;;;;;;6.13;4.03;;;;;;;30.26;28.78;101108.69;5032160;28;20095;-65
2021/05/28 10:40:39;;;;;;;6.57;4.18;;;;;;;31.09;27.21;101106.53;5032129;28;20579;-64
2021/05/28 10:43:23;;;;;;;5.20;3.85;;;;;;;31.99;24.69;101104.72;5032380;28;20079;-64
2021/05/28 10:46:10;;;;;;;5.68;3.92;;;;;;;32.06;23.71;101091.53;5032411;28;20088;-64
2021/05/28 10:49:10;;;;;;;4.10;3.70;;;;;;;32.24;23.90;101107.69;5033120;28;20075;-64
2021/05/28 10:51:53;;;;;;;6.80;4.60;;;;;;;32.42;24.48;101108.09;5033323;28;20155;-64
2021/05/28 10:54:40;;;;;;;5.55;4.68;;;;;;;33.27;23.49;101092.78;5032081;28;20048;-64
2021/05/28 10:57:29;;;;;;;4.00;3.60;;;;;;;32.66;23.72;101092.75;5032042;28;20081;-65
2021/05/28 11:00:35;;;;;;;3.75;3.33;;;;;;;30.97;25.47;101103.94;5031952;28;20096;-64
2021/05/28 11:03:19;;;;;;;5.65;3.38;;;;;;;31.34;25.16;101095.81;5032262;28;20144;-64
2021/05/28 11:06:03;;;;;;;4.38;3.45;;;;;;;32.01;23.48;101092.34;5032306;28;20044;-64
2021/05/28 11:08:48;;;;;;;3.25;2.30;;;;;;;32.60;23.00;101093.81;5033088;28;20052;-64
2021/05/28 11:11:35;;;;;;;3.08;2.78;;;;;;;33.39;22.23;101082.28;5032999;28;20091;-64
2021/05/28 11:14:19;;;;;;;3.25;2.90;;;;;;;34.07;21.86;101081.75;5032797;28;20096;-64
2021/05/28 11:17:03;;;;;;;3.38;2.88;;;;;;;33.49;21.31;101079.53;5033030;28;20488;-65
2021/05/28 11:19:50;;;;;;;4.70;3.28;;;;;;;34.69;20.02;101075.81;5032786;28;20056;-64
2021/05/28 11:22:38;;;;;;;4.38;2.95;;;;;;;34.79;21.21;101076.63;5018362;28;20159;-65
2021/05/28 11:25:23;;;;;;;3.70;2.60;;;;;;;34.75;20.55;101069.16;5031684;28;20052;-65
2021/05/28 11:28:09;;;;;;;3.67;2.15;;;;;;;35.29;20.08;101059.75;5032168;28;20048;-65
2021/05/28 11:30:56;;;;;;;3.20;2.65;;;;;;;35.31;19.02;101060.28;5031926;28;20048;-65
2021/05/28 11:33:42;;;;;;;5.70;2.08;;;;;;;35.82;18.34;101058.78;5031570;28;20421;-65
2021/05/28 11:36:26;;;;;;;4.00;2.20;;;;;;;34.72;18.65;101062.28;5031928;28;20064;-65
2021/05/28 11:39:10;;;;;;;3.50;2.53;;;;;;;35.90;19.03;101055.41;5032799;28;20521;-65
2021/05/28 11:42:03;;;;;;;3.22;2.33;;;;;;;36.44;18.69;101048.47;5032463;28;20053;-65
2021/05/28 11:44:52;;;;;;;2.95;2.42;;;;;;;36.03;18.59;101049.16;5032589;28;20052;-65
2021/05/28 11:47:37;;;;;;;2.78;2.40;;;;;;;33.29;20.87;101053.78;5031468;28;20103;-64
2021/05/28 11:50:22;;;;;;;2.70;2.50;;;;;;;31.59;23.22;101062.97;5033548;28;20051;-65
2021/05/28 11:53:08;;;;;;;3.50;2.35;;;;;;;30.36;25.34;101062.06;5021168;28;20095;-64
2021/05/28 11:55:54;;;;;;;3.00;2.60;;;;;;;29.10;26.19;101061.00;5036504;28;20514;-65
2021/05/28 11:58:41;;;;;;;3.95;2.17;;;;;;;29.20;26.20;101055.72;5035703;28;20049;-65
2021/05/28 12:01:25;;;;;;;2.70;2.50;;;;;;;30.51;24.51;101051.25;5036148;28;20056;-67
2021/05/28 12:04:16;;;;;;;4.82;2.63;;;;;;;32.14;22.19;101047.72;5035895;28;20055;-64
2021/05/28 12:07:07;;;;;;;2.25;2.05;;;;;;;33.16;21.05;101046.00;5035122;28;20083;-65
2021/05/28 12:10:08;;;;;;;2.50;2.30;;;;;;;34.06;18.94;101030.28;5035141;28;20048;-64
2021/05/28 12:13:12;;;;;;;2.47;2.22;;;;;;;34.14;19.20;101029.72;5034756;28;20064;-64
2021/05/28 12:16:01;;;;;;;4.40;1.98;;;;;;;35.20;20.05;101032.94;5034577;28;20048;-65
2021/05/28 12:18:46;;;;;;;2.38;2.17;;;;;;;35.73;18.69;101024.50;5035922;28;20047;-64
2021/05/28 12:21:29;;;;;;;2.63;1.83;;;;;;;35.70;17.67;101018.69;5034489;28;20088;-65
2021/05/28 12:24:16;;;;;;;2.03;1.80;;;;;;;36.28;18.44;101023.94;5035699;28;20040;-65
2021/05/28 12:27:00;;;;;;;4.18;1.80;;;;;;;36.48;17.00;101020.91;5034748;28;20055;-65
2021/05/28 12:29:47;;;;;;;2.22;2.08;;;;;;;36.55;17.33;101016.66;5035683;28;20052;-65
2021/05/28 12:32:31;;;;;;;3.05;1.85;;;;;;;37.12;18.06;101021.19;5034373;28;20076;-65
2021/05/28 12:35:15;;;;;;;3.42;2.00;;;;;;;35.45;18.26;101025.25;5034482;28;20051;-65
2021/05/28 12:38:10;;;;;;;3.03;2.35;;;;;;;33.02;19.67;101021.94;5034275;28;20084;-65
2021/05/28 12:40:54;;;;;;;2.83;2.10;;;;;;;32.62;20.65;101019.00;5020374;28;20095;-64